createdAt,value
2022-11-05T00:01:03.110Z,13.10
2022-11-05T00:04:07.212Z,13.10
2022-11-05T00:07:14.124Z,13.10
2022-11-05T00:10:07.609Z,13.10
2022-11-05T00:13:13.964Z,13.00
2022-11-05T00:16:18.801Z,13.00
2022-11-05T00:19:07.139Z,13.00
2022-11-05T00:22:11.767Z,13.00
2022-11-05T00:25:15.873Z,12.90
2022-11-05T00:28:03.113Z,12.90
2022-11-05T00:30:49.407Z,12.90
2022-11-05T00:33:36.401Z,12.80
2022-11-05T00:36:22.023Z,12.80
2022-11-05T00:39:07.573Z,12.80
2022-11-05T00:42:11.746Z,12.80
2022-11-05T00:45:01.199Z,12.80
2022-11-05T00:48:06.123Z,12.80
2022-11-05T00:50:51.953Z,12.70
2022-11-05T00:53:37.760Z,12.70
2022-11-05T00:56:23.169Z,12.70
2022-11-05T00:59:08.755Z,12.60
2022-11-05T01:01:54.584Z,12.60
2022-11-05T01:04:40.133Z,12.50
2022-11-05T01:07:25.612Z,12.50
2022-11-05T01:10:11.060Z,12.50
2022-11-05T01:12:57.232Z,12.40
2022-11-05T01:15:43.079Z,12.40
2022-11-05T01:18:28.817Z,12.50
2022-11-05T01:21:15.868Z,12.40
2022-11-05T01:24:02.344Z,12.50
2022-11-05T01:26:48.502Z,12.40
2022-11-05T01:29:34.293Z,12.40
2022-11-05T01:32:19.738Z,12.40
2022-11-05T01:35:08.868Z,12.40
2022-11-05T01:37:54.294Z,12.40
2022-11-05T01:40:43.596Z,12.30
2022-11-05T01:43:49.699Z,12.10
2022-11-05T01:46:45.460Z,11.90
2022-11-05T01:49:34.087Z,11.80
2022-11-05T01:52:21.937Z,11.80
2022-11-05T01:55:09.509Z,11.80
2022-11-05T01:57:59.228Z,11.80
2022-11-05T02:00:45.664Z,11.90
2022-11-05T02:03:33.014Z,11.90
2022-11-05T02:06:19.507Z,11.80
2022-11-05T02:09:07.693Z,11.80
2022-11-05T02:11:53.944Z,11.70
2022-11-05T02:14:39.847Z,11.70
2022-11-05T02:17:53.923Z,11.70
2022-11-05T02:20:57.714Z,11.70
2022-11-05T02:24:21.474Z,11.60
2022-11-05T02:27:23.720Z,11.70
2022-11-05T02:30:24.918Z,11.70
2022-11-05T02:33:22.259Z,11.60
2022-11-05T02:36:28.958Z,11.60
2022-11-05T02:39:38.164Z,11.50
2022-11-05T02:42:34.149Z,11.40
2022-11-05T02:45:42.519Z,11.40
2022-11-05T02:48:35.678Z,11.50
2022-11-05T02:51:40.693Z,11.60
2022-11-05T02:54:35.494Z,11.50
2022-11-05T02:57:24.412Z,11.50
2022-11-05T03:00:41.909Z,11.50
2022-11-05T03:03:40.639Z,11.50
2022-11-05T03:06:58.395Z,11.50
2022-11-05T03:09:46.864Z,11.50
2022-11-05T03:13:11.237Z,11.40
2022-11-05T03:16:25.375Z,11.40
2022-11-05T03:19:19.905Z,11.50
2022-11-05T03:22:14.822Z,11.50
2022-11-05T03:25:08.961Z,11.50
2022-11-05T03:27:58.475Z,11.40
2022-11-05T03:30:45.451Z,11.40
2022-11-05T03:33:34.962Z,11.40
2022-11-05T03:36:30.808Z,11.40
2022-11-05T03:39:23.424Z,11.40
2022-11-05T03:42:14.610Z,11.40
2022-11-05T03:45:07.065Z,11.40
2022-11-05T03:47:56.855Z,11.40
2022-11-05T03:50:53.329Z,11.40
2022-11-05T03:53:59.795Z,11.40
2022-11-05T03:56:57.005Z,11.40
2022-11-05T03:59:45.461Z,11.50
2022-11-05T04:02:31.774Z,11.40
2022-11-05T04:05:17.983Z,11.40
2022-11-05T04:08:23.163Z,11.40
2022-11-05T04:11:29.934Z,11.40
2022-11-05T04:14:15.229Z,11.40
2022-11-05T04:17:07.251Z,11.30
2022-11-05T04:20:12.355Z,11.30
2022-11-05T04:23:21.791Z,11.30
2022-11-05T04:26:07.337Z,11.20
2022-11-05T04:29:11.903Z,11.20
2022-11-05T04:31:57.727Z,11.20
2022-11-05T04:34:43.693Z,11.20
2022-11-05T04:37:29.399Z,11.20
2022-11-05T04:40:14.969Z,11.20
2022-11-05T04:43:01.719Z,11.10
2022-11-05T04:45:47.979Z,11.00
2022-11-05T04:48:33.738Z,10.90
2022-11-05T04:51:20.001Z,10.80
2022-11-05T04:54:05.480Z,10.90
2022-11-05T04:56:51.035Z,11.00
2022-11-05T04:59:36.990Z,11.00
2022-11-05T05:02:22.899Z,10.90
2022-11-05T05:05:08.415Z,10.90
2022-11-05T05:07:54.339Z,10.80
2022-11-05T05:10:45.818Z,10.80
2022-11-05T05:13:37.394Z,10.80
2022-11-05T05:16:25.046Z,10.70
2022-11-05T05:19:11.183Z,10.80
2022-11-05T05:21:56.811Z,10.70
2022-11-05T05:24:42.281Z,10.60
2022-11-05T05:27:31.619Z,10.60
2022-11-05T05:30:17.764Z,10.60
2022-11-05T05:33:04.308Z,10.60
2022-11-05T05:35:49.910Z,10.60
2022-11-05T05:38:35.432Z,10.60
2022-11-05T05:41:21.874Z,10.50
2022-11-05T05:44:08.190Z,10.50
2022-11-05T05:46:55.517Z,10.60
2022-11-05T05:49:40.974Z,10.60
2022-11-05T05:52:26.861Z,10.70
2022-11-05T05:55:12.742Z,10.60
2022-11-05T05:57:59.299Z,10.60
2022-11-05T06:00:44.948Z,10.60
2022-11-05T06:03:31.026Z,10.60
2022-11-05T06:06:21.160Z,10.70
2022-11-05T06:09:07.396Z,10.70
2022-11-05T06:11:53.293Z,10.60
2022-11-05T06:14:40.345Z,10.60
2022-11-05T06:17:26.320Z,10.60
2022-11-05T06:20:12.992Z,10.70
2022-11-05T06:22:59.380Z,10.60
2022-11-05T06:25:45.867Z,10.60
2022-11-05T06:28:33.454Z,10.70
2022-11-05T06:31:19.613Z,10.70
2022-11-05T06:34:05.305Z,10.70
2022-11-05T06:36:51.319Z,10.50
2022-11-05T06:39:37.811Z,10.50
2022-11-05T06:42:23.485Z,10.50
2022-11-05T06:45:10.125Z,10.50
2022-11-05T06:47:59.610Z,10.40
2022-11-05T06:50:45.559Z,10.40
2022-11-05T06:53:31.507Z,10.50
2022-11-05T06:56:17.385Z,10.40
2022-11-05T06:59:03.747Z,10.50
2022-11-05T07:01:49.634Z,10.50
2022-11-05T07:04:36.265Z,10.50
2022-11-05T07:07:22.336Z,10.40
2022-11-05T07:10:11.545Z,10.40
2022-11-05T07:12:57.570Z,10.50
2022-11-05T07:15:43.311Z,10.60
2022-11-05T07:18:28.744Z,10.50
2022-11-05T07:21:14.181Z,10.60
2022-11-05T07:24:00.292Z,10.60
2022-11-05T07:26:46.021Z,10.50
2022-11-05T07:29:32.124Z,10.50
2022-11-05T07:32:17.771Z,10.40
2022-11-05T07:35:03.956Z,10.30
2022-11-05T07:37:51.755Z,10.40
2022-11-05T07:40:37.494Z,10.50
2022-11-05T07:43:22.993Z,10.50
2022-11-05T07:46:13.654Z,10.50
2022-11-05T07:48:59.980Z,10.30
2022-11-05T07:51:46.590Z,10.60
2022-11-05T07:54:32.288Z,10.70
2022-11-05T07:57:18.412Z,10.80
2022-11-05T08:00:04.344Z,10.90
2022-11-05T08:03:12.719Z,10.90
2022-11-05T08:05:59.506Z,10.80
2022-11-05T08:08:45.359Z,10.70
2022-11-05T08:11:31.703Z,10.70
2022-11-05T08:14:18.281Z,10.80
2022-11-05T08:17:04.054Z,10.90
2022-11-05T08:19:49.893Z,10.90
2022-11-05T08:22:35.591Z,11.00
2022-11-05T08:25:22.007Z,10.90
2022-11-05T08:28:11.734Z,11.10
2022-11-05T08:30:58.441Z,11.10
2022-11-05T08:33:44.440Z,11.00
2022-11-05T08:36:30.235Z,11.20
2022-11-05T08:39:18.617Z,11.10
2022-11-05T08:42:04.931Z,11.20
2022-11-05T08:44:50.735Z,11.20
2022-11-05T08:47:37.164Z,11.20
2022-11-05T08:50:23.257Z,11.30
2022-11-05T08:53:10.514Z,11.30
2022-11-05T08:56:00.566Z,11.30
2022-11-05T08:58:46.711Z,11.30
2022-11-05T09:01:35.652Z,11.40
2022-11-05T09:04:21.548Z,11.50
2022-11-05T09:07:08.051Z,11.50
2022-11-05T09:09:53.821Z,11.50
2022-11-05T09:12:39.737Z,11.60
2022-11-05T09:15:26.088Z,11.70
2022-11-05T09:18:14.079Z,11.80
2022-11-05T09:20:59.823Z,11.80
2022-11-05T09:23:46.795Z,11.80
2022-11-05T09:26:33.070Z,11.80
2022-11-05T09:29:18.843Z,11.90
2022-11-05T09:32:04.467Z,12.00
2022-11-05T09:34:52.672Z,12.00
2022-11-05T09:37:38.850Z,12.10
2022-11-05T09:40:25.827Z,12.10
2022-11-05T09:43:19.778Z,12.20
2022-11-05T09:46:32.315Z,12.20
2022-11-05T09:49:38.467Z,12.30
2022-11-05T09:52:29.960Z,12.40
2022-11-05T09:55:30.812Z,12.40
2022-11-05T09:58:21.245Z,12.40
2022-11-05T10:01:23.214Z,12.40
2022-11-05T10:04:22.738Z,12.50
2022-11-05T10:07:14.364Z,12.60
2022-11-05T10:10:04.560Z,12.70
2022-11-05T10:12:54.997Z,12.70
2022-11-05T10:15:48.834Z,12.80
2022-11-05T10:18:39.268Z,12.90
2022-11-05T10:21:51.577Z,13.00
2022-11-05T10:24:31.472Z,13.10
2022-11-05T10:27:19.402Z,13.10
2022-11-05T10:30:06.392Z,13.10
2022-11-05T10:32:56.472Z,13.20
2022-11-05T10:35:49.759Z,13.20
2022-11-05T10:38:35.711Z,13.30
2022-11-05T10:41:49.333Z,13.40
2022-11-05T10:44:41.243Z,13.40
2022-11-05T10:48:02.107Z,13.50
2022-11-05T10:50:48.384Z,13.70
2022-11-05T10:53:36.511Z,13.70
2022-11-05T10:56:42.587Z,13.80
2022-11-05T10:59:30.039Z,13.90
2022-11-05T11:02:26.210Z,13.90
2022-11-05T11:05:25.147Z,13.90
2022-11-05T11:08:14.307Z,14.00
2022-11-05T11:11:04.773Z,14.10
2022-11-05T11:14:01.735Z,14.20
2022-11-05T11:16:51.135Z,14.20
2022-11-05T11:19:36.868Z,14.20
2022-11-05T11:22:23.379Z,14.20
2022-11-05T11:25:26.111Z,14.40
2022-11-05T11:28:23.823Z,14.50
2022-11-05T11:31:28.478Z,14.50
2022-11-05T11:34:25.216Z,14.60
2022-11-05T11:37:24.334Z,14.60
2022-11-05T11:40:16.570Z,14.70
2022-11-05T11:43:16.629Z,14.80
2022-11-05T11:46:09.929Z,14.80
2022-11-05T11:49:00.417Z,15.00
2022-11-05T11:51:50.163Z,15.10
2022-11-05T11:54:35.937Z,15.10
2022-11-05T11:57:29.485Z,15.20
2022-11-05T12:00:17.931Z,15.30
2022-11-05T12:03:19.041Z,15.40
2022-11-05T12:06:33.357Z,15.50
2022-11-05T12:09:44.200Z,15.70
2022-11-05T12:12:44.723Z,15.70
2022-11-05T12:15:50.192Z,16.00
2022-11-05T12:18:53.164Z,16.00
2022-11-05T12:22:00.445Z,16.00
2022-11-05T12:24:53.556Z,16.10
2022-11-05T12:28:16.912Z,16.20
2022-11-05T12:31:10.294Z,16.40
2022-11-05T12:34:08.766Z,16.40
2022-11-05T12:37:09.340Z,16.60
2022-11-05T12:39:54.912Z,16.90
2022-11-05T12:43:12.302Z,16.90
2022-11-05T12:46:01.080Z,16.90
2022-11-05T12:49:03.639Z,17.00
2022-11-05T12:51:57.968Z,17.10
2022-11-05T12:55:07.180Z,17.20
2022-11-05T12:58:08.724Z,17.30
2022-11-05T13:01:17.390Z,17.50
2022-11-05T13:04:15.697Z,18.00
2022-11-05T13:07:04.170Z,18.00
2022-11-05T13:09:55.389Z,18.20
2022-11-05T13:12:44.320Z,18.20
2022-11-05T13:15:35.431Z,18.40
2022-11-05T13:18:29.510Z,18.70
2022-11-05T13:21:17.572Z,18.60
2022-11-05T13:24:17.262Z,18.70
2022-11-05T13:27:48.060Z,19.00
2022-11-05T13:30:42.782Z,19.00
2022-11-05T13:33:43.214Z,19.10
2022-11-05T13:37:10.579Z,19.50
2022-11-05T13:40:03.375Z,19.70
2022-11-05T13:43:05.343Z,19.70
2022-11-05T13:46:25.575Z,20.70
2022-11-05T13:49:29.954Z,22.30
2022-11-05T13:52:52.487Z,24.30
2022-11-05T13:56:11.335Z,25.20
2022-11-05T13:59:18.406Z,25.60
2022-11-05T14:02:22.629Z,26.50
2022-11-05T14:05:27.434Z,27.20
2022-11-05T14:08:27.614Z,27.50
2022-11-05T14:11:21.831Z,27.00
2022-11-05T14:14:16.378Z,27.00
2022-11-05T14:17:09.161Z,27.40
2022-11-05T14:20:04.788Z,27.80
2022-11-05T14:22:51.504Z,28.30
2022-11-05T14:25:37.212Z,27.50
2022-11-05T14:28:35.005Z,26.80
2022-11-05T14:32:07.172Z,26.00
2022-11-05T14:34:48.650Z,26.30
2022-11-05T14:38:00.954Z,26.80
2022-11-05T14:40:47.956Z,26.90
2022-11-05T14:43:34.501Z,26.80
2022-11-05T14:46:20.925Z,25.00
2022-11-05T14:49:09.611Z,25.40
2022-11-05T14:51:59.583Z,26.00
2022-11-05T14:54:49.893Z,25.80
2022-11-05T14:57:42.279Z,25.00
2022-11-05T15:00:28.094Z,23.90
2022-11-05T15:04:02.292Z,23.50
2022-11-05T15:07:04.223Z,24.20
2022-11-05T15:10:11.273Z,24.90
2022-11-05T15:13:04.116Z,25.10
2022-11-05T15:15:50.802Z,25.20
2022-11-05T15:18:47.411Z,24.00
2022-11-05T15:21:36.257Z,22.60
2022-11-05T15:24:23.559Z,22.00
2022-11-05T15:27:09.294Z,21.40
2022-11-05T15:29:55.548Z,21.00
2022-11-05T15:32:41.513Z,20.70
2022-11-05T15:35:30.393Z,20.50
2022-11-05T15:38:26.402Z,20.20
2022-11-05T15:41:33.736Z,20.10
2022-11-05T15:44:40.313Z,20.00
2022-11-05T15:47:28.817Z,19.70
2022-11-05T15:50:15.778Z,19.50
2022-11-05T15:53:37.534Z,19.40
2022-11-05T15:56:32.847Z,19.30
2022-11-05T15:59:21.547Z,19.10
2022-11-05T16:02:13.733Z,19.00
2022-11-05T16:05:03.323Z,18.80
2022-11-05T16:07:50.134Z,18.70
2022-11-05T16:10:39.048Z,18.50
2022-11-05T16:13:35.226Z,18.40
2022-11-05T16:16:33.340Z,18.20
2022-11-05T16:19:40.253Z,18.10
2022-11-05T16:22:45.400Z,18.00
2022-11-05T16:25:42.998Z,17.80
2022-11-05T16:28:30.641Z,17.60
2022-11-05T16:31:22.114Z,17.60
2022-11-05T16:34:18.591Z,17.50
2022-11-05T16:37:06.678Z,17.30
2022-11-05T16:39:53.673Z,17.20
2022-11-05T16:42:40.894Z,17.10
2022-11-05T16:45:27.156Z,17.10
2022-11-05T16:48:14.904Z,17.00
2022-11-05T16:51:01.177Z,17.00
2022-11-05T16:53:48.833Z,16.80
2022-11-05T16:56:35.231Z,16.80
2022-11-05T16:59:20.746Z,16.60
2022-11-05T17:02:09.638Z,16.60
2022-11-05T17:04:55.976Z,16.50
2022-11-05T17:07:42.326Z,16.50
2022-11-05T17:10:28.365Z,16.40
2022-11-05T17:13:16.067Z,16.30
2022-11-05T17:16:02.251Z,16.20
2022-11-05T17:18:48.556Z,16.10
2022-11-05T17:21:34.108Z,16.10
2022-11-05T17:24:20.005Z,16.00
2022-11-05T17:27:06.024Z,16.00
2022-11-05T17:29:52.349Z,15.90
2022-11-05T17:32:41.000Z,15.80
2022-11-05T17:35:27.493Z,15.80
2022-11-05T17:38:14.567Z,15.80
2022-11-05T17:41:01.532Z,15.80
2022-11-05T17:43:48.735Z,15.80
2022-11-05T17:46:34.589Z,15.80
2022-11-05T17:49:20.194Z,15.80
2022-11-05T17:52:05.911Z,15.70
2022-11-05T17:54:52.570Z,15.60
2022-11-05T17:57:38.601Z,15.60
2022-11-05T18:00:25.207Z,15.50
2022-11-05T18:03:11.679Z,15.50
2022-11-05T18:06:06.719Z,15.50
2022-11-05T18:08:52.694Z,15.50
2022-11-05T18:11:41.087Z,15.50
2022-11-05T18:14:27.446Z,15.50
2022-11-05T18:17:13.614Z,15.50
2022-11-05T18:19:59.425Z,15.50
2022-11-05T18:22:45.983Z,15.40
2022-11-05T18:25:34.206Z,15.40
2022-11-05T18:28:46.013Z,15.40
2022-11-05T18:31:32.118Z,15.30
2022-11-05T18:34:18.005Z,15.30
2022-11-05T18:37:04.394Z,15.20
2022-11-05T18:39:52.334Z,15.20
2022-11-05T18:42:38.755Z,15.20
2022-11-05T18:45:29.593Z,15.20
2022-11-05T18:48:15.939Z,15.10
2022-11-05T18:51:08.815Z,15.00
2022-11-05T18:53:55.507Z,15.00
2022-11-05T18:56:45.339Z,14.90
2022-11-05T18:59:39.797Z,14.80
2022-11-05T19:02:26.717Z,14.70
2022-11-05T19:05:28.576Z,14.70
2022-11-05T19:08:15.171Z,14.70
2022-11-05T19:11:14.294Z,14.70
2022-11-05T19:14:01.304Z,14.60
2022-11-05T19:16:46.995Z,14.60
2022-11-05T19:19:32.902Z,14.60
2022-11-05T19:22:18.515Z,14.50
2022-11-05T19:25:05.991Z,14.50
2022-11-05T19:27:52.104Z,14.40
2022-11-05T19:30:39.001Z,14.40
2022-11-05T19:33:25.354Z,14.30
2022-11-05T19:36:13.208Z,14.30
2022-11-05T19:39:03.792Z,14.10
2022-11-05T19:41:50.382Z,14.10
2022-11-05T19:44:37.100Z,14.10
2022-11-05T19:47:23.025Z,14.10
2022-11-05T19:50:09.234Z,14.00
2022-11-05T19:52:55.134Z,14.00
2022-11-05T19:55:41.527Z,14.00
2022-11-05T19:58:27.033Z,13.90
2022-11-05T20:01:14.418Z,13.90
2022-11-05T20:04:02.370Z,13.70
2022-11-05T20:06:48.464Z,13.60
2022-11-05T20:09:34.912Z,13.60
2022-11-05T20:12:20.913Z,13.70
2022-11-05T20:15:07.220Z,13.70
2022-11-05T20:17:54.967Z,13.70
2022-11-05T20:20:40.846Z,13.70
2022-11-05T20:23:28.181Z,13.70
2022-11-05T20:26:15.486Z,13.70
2022-11-05T20:29:01.924Z,13.60
2022-11-05T20:31:48.585Z,13.60
2022-11-05T20:34:35.023Z,13.60
2022-11-05T20:37:20.486Z,13.60
2022-11-05T20:40:06.987Z,13.60
2022-11-05T20:42:52.754Z,13.60
2022-11-05T20:45:39.380Z,13.60
2022-11-05T20:48:25.411Z,13.50
2022-11-05T20:51:14.114Z,13.40
2022-11-05T20:54:01.139Z,13.30
2022-11-05T20:56:46.880Z,13.40
2022-11-05T20:59:32.617Z,13.40
2022-11-05T21:02:18.171Z,13.30
2022-11-05T21:05:04.995Z,13.40
2022-11-05T21:07:50.927Z,13.40
2022-11-05T21:10:37.586Z,13.30
2022-11-05T21:13:25.118Z,13.20
2022-11-05T21:16:16.840Z,13.20
2022-11-05T21:19:03.591Z,13.20
2022-11-05T21:21:49.676Z,13.20
2022-11-05T21:24:36.272Z,13.10
2022-11-05T21:27:22.796Z,13.10
2022-11-05T21:30:09.204Z,13.10
2022-11-05T21:32:55.254Z,13.10
2022-11-05T21:35:44.112Z,13.10
2022-11-05T21:38:30.437Z,13.10
2022-11-05T21:41:16.168Z,13.10
2022-11-05T21:44:04.140Z,13.10
2022-11-05T21:46:49.443Z,13.00
2022-11-05T21:49:35.257Z,13.00
2022-11-05T21:52:40.140Z,13.00
2022-11-05T21:55:43.943Z,13.10
2022-11-05T21:58:47.750Z,13.10
2022-11-05T22:01:34.128Z,13.10
2022-11-05T22:04:20.437Z,13.00
2022-11-05T22:07:07.732Z,13.00
2022-11-05T22:09:54.261Z,13.00
2022-11-05T22:12:41.020Z,13.00
2022-11-05T22:15:26.548Z,13.00
2022-11-05T22:18:13.010Z,12.90
2022-11-05T22:20:58.707Z,12.90
2022-11-05T22:23:44.667Z,12.90
2022-11-05T22:26:30.419Z,12.80
2022-11-05T22:29:16.760Z,12.80
2022-11-05T22:32:03.728Z,12.80
2022-11-05T22:34:50.089Z,12.80
2022-11-05T22:37:35.659Z,12.80
2022-11-05T22:40:23.999Z,12.70
2022-11-05T22:43:10.045Z,12.60
2022-11-05T22:45:56.573Z,12.60
2022-11-05T22:48:43.268Z,12.60
2022-11-05T22:51:31.662Z,12.70
2022-11-05T22:54:17.878Z,12.70
2022-11-05T22:57:03.661Z,12.70
2022-11-05T22:59:49.788Z,12.60
2022-11-05T23:02:36.244Z,12.50
2022-11-05T23:05:22.625Z,12.40
2022-11-05T23:08:28.119Z,12.30
2022-11-05T23:11:35.458Z,12.30
2022-11-05T23:14:21.166Z,12.30
2022-11-05T23:17:35.271Z,12.20
2022-11-05T23:20:41.690Z,12.00
2022-11-05T23:23:47.099Z,12.00
2022-11-05T23:26:52.781Z,11.90
2022-11-05T23:29:38.991Z,12.10
2022-11-05T23:32:25.354Z,12.00
2022-11-05T23:35:12.154Z,11.90
2022-11-05T23:38:21.070Z,11.80
2022-11-05T23:41:26.395Z,11.90
2022-11-05T23:44:47.693Z,12.00
2022-11-05T23:47:52.235Z,12.00
2022-11-05T23:50:39.917Z,12.10
2022-11-05T23:53:26.772Z,11.90
2022-11-05T23:56:15.201Z,11.80
2022-11-05T23:59:01.233Z,11.80
